createdAt,value
2019-02-26T00:51:03.127Z,65.40
2019-02-26T00:53:55.004Z,65.60
2019-02-26T00:59:50.404Z,66.30
2019-02-26T01:02:39.832Z,67.00
2019-02-26T01:41:18.101Z,71.00
2019-02-26T01:44:11.439Z,71.80
2019-02-26T01:47:02.529Z,72.10
2019-02-26T03:12:55.289Z,84.10
2019-02-26T03:15:43.330Z,84.70
2019-02-26T03:37:49.617Z,91.90
2019-02-26T03:40:44.559Z,92.70
2019-02-26T03:43:31.436Z,93.40
2019-02-26T03:46:03.477Z,93.70
2019-02-26T03:48:52.923Z,93.80
2019-02-26T05:09:02.679Z,99.90
2019-02-26T05:48:25.782Z,99.90
2019-02-26T05:51:14.969Z,99.90
2019-02-26T06:26:37.674Z,99.90
2019-02-26T06:29:34.941Z,99.90
2019-02-26T06:55:00.207Z,99.90
2019-02-26T06:57:50.906Z,99.90
2019-02-26T07:00:36.237Z,99.90
2019-02-26T07:03:07.089Z,99.90
2019-02-26T07:05:56.646Z,99.90
2019-02-26T07:28:53.642Z,99.90
2019-02-26T07:31:43.134Z,99.90
2019-02-26T08:16:18.776Z,70.30
2019-02-26T08:19:09.412Z,68.20
2019-02-26T08:35:21.091Z,57.50
2019-02-26T08:38:10.643Z,56.50
2019-02-26T08:47:13.944Z,54.20
2019-02-26T08:50:10.490Z,53.40
2019-02-26T08:52:58.502Z,52.10
2019-02-26T09:09:11.715Z,46.60
2019-02-26T09:12:03.258Z,46.40
2019-02-26T09:43:25.961Z,39.70
2019-02-26T09:46:16.209Z,40.00
2019-02-26T10:12:55.841Z,35.20
2019-02-26T10:31:40.424Z,34.50
2019-02-26T10:34:30.362Z,34.00
2019-02-26T11:09:58.599Z,32.20
2019-02-26T11:12:48.241Z,32.40
2019-02-26T11:31:53.411Z,31.80
2019-02-26T11:34:42.886Z,31.40
2019-02-26T11:44:07.117Z,30.40
2019-02-26T11:46:56.751Z,29.80
2019-02-26T12:22:00.784Z,27.70
2019-02-26T12:24:53.083Z,27.60
2019-02-26T12:49:47.550Z,25.60
2019-02-26T12:52:37.160Z,25.70
2019-02-26T12:58:28.288Z,25.30
2019-02-26T13:01:18.010Z,24.80
2019-02-26T13:34:18.346Z,25.30
2019-02-26T13:37:07.792Z,25.10
2019-02-26T14:00:11.007Z,24.50
2019-02-26T14:22:36.628Z,24.60
2019-02-26T14:25:26.420Z,24.50
2019-02-26T14:34:46.678Z,25.00
2019-02-26T14:37:35.902Z,25.20
2019-02-26T14:46:56.742Z,25.10
2019-02-26T14:49:46.220Z,25.00
2019-02-26T15:34:49.403Z,26.60
2019-02-26T15:37:38.678Z,27.60
2019-02-26T15:46:54.493Z,30.10
2019-02-26T15:49:40.858Z,30.60
2019-02-26T16:05:11.576Z,32.90
2019-02-26T16:08:01.046Z,33.30
2019-02-26T16:27:47.840Z,36.10
2019-02-26T16:32:41.775Z,36.40
2019-02-26T16:35:12.355Z,37.10
2019-02-26T16:37:43.483Z,37.20
2019-02-26T16:40:15.108Z,37.40
2019-02-26T16:42:45.999Z,37.50
2019-02-26T16:45:21.641Z,37.70
2019-02-26T16:47:52.586Z,38.00
2019-02-26T16:50:24.164Z,38.30
2019-02-26T16:52:57.870Z,38.40
2019-02-26T16:55:28.072Z,39.00
2019-02-26T16:58:02.157Z,39.20
2019-02-26T17:00:31.612Z,39.30
2019-02-26T17:03:03.002Z,39.50
2019-02-26T17:05:34.090Z,39.80
2019-02-26T17:08:05.247Z,40.60
2019-02-26T17:10:36.660Z,41.70
2019-02-26T17:13:08.774Z,42.30
2019-02-26T17:15:39.511Z,42.40
2019-02-26T17:18:10.407Z,43.10
2019-02-26T17:20:41.553Z,43.50
2019-02-26T17:23:14.516Z,43.80
2019-02-26T17:25:45.286Z,43.90
2019-02-26T17:28:15.857Z,44.20
2019-02-26T17:30:46.824Z,44.40
2019-02-26T17:33:17.951Z,44.40
2019-02-26T17:35:48.301Z,44.80
2019-02-26T17:38:19.435Z,45.30
2019-02-26T17:40:50.163Z,45.60
2019-02-26T17:43:22.845Z,45.80
2019-02-26T17:45:53.291Z,46.00
2019-02-26T17:48:24.235Z,46.30
2019-02-26T17:50:54.670Z,46.60
2019-02-26T17:53:27.638Z,46.90
2019-02-26T17:55:57.787Z,47.00
2019-02-26T17:58:28.830Z,47.30
2019-02-26T18:00:59.611Z,47.60
2019-02-26T18:03:29.895Z,47.60
2019-02-26T18:06:00.361Z,47.70
2019-02-26T18:08:31.580Z,47.80
2019-02-26T18:11:01.921Z,48.10
2019-02-26T18:13:32.952Z,48.50
2019-02-26T18:16:09.194Z,48.60
2019-02-26T18:18:36.167Z,48.90
2019-02-26T18:21:07.113Z,48.90
2019-02-26T18:23:38.330Z,49.30
2019-02-26T18:26:09.815Z,49.30
2019-02-26T18:28:40.558Z,49.40
2019-02-26T18:31:10.833Z,49.80
2019-02-26T18:33:41.421Z,50.30
2019-02-26T18:36:11.685Z,50.70
2019-02-26T18:38:42.640Z,50.90
2019-02-26T18:41:13.220Z,51.30
2019-02-26T18:43:47.179Z,51.60
2019-02-26T18:46:16.549Z,52.20
2019-02-26T18:48:48.736Z,52.40
2019-02-26T18:51:21.101Z,52.90
2019-02-26T18:53:51.226Z,53.10
2019-02-26T18:56:22.167Z,52.90
2019-02-26T18:58:53.312Z,52.70
2019-02-26T19:01:24.253Z,52.50
2019-02-26T19:03:55.610Z,52.70
2019-02-26T19:06:27.464Z,52.90
2019-02-26T19:08:59.749Z,53.00
2019-02-26T19:11:30.490Z,53.20
2019-02-26T19:14:02.655Z,53.50
2019-02-26T19:16:33.809Z,53.90
2019-02-26T19:19:03.927Z,54.30
2019-02-26T19:21:34.209Z,54.30
2019-02-26T19:24:05.280Z,54.40
2019-02-26T19:26:36.303Z,54.70
2019-02-26T19:29:07.093Z,55.00
2019-02-26T19:31:38.071Z,55.20
2019-02-26T19:34:08.157Z,55.00
2019-02-26T19:36:38.393Z,55.00
2019-02-26T19:39:09.845Z,54.80
2019-02-26T19:41:40.644Z,55.00
2019-02-26T19:44:11.732Z,54.90
2019-02-26T19:46:42.214Z,55.20
2019-02-26T19:49:12.797Z,55.20
2019-02-26T19:51:44.577Z,55.20
2019-02-26T19:54:15.291Z,55.10
2019-02-26T19:56:46.633Z,55.60
2019-02-26T19:59:16.785Z,55.50
2019-02-26T20:01:46.934Z,55.80
2019-02-26T20:04:17.839Z,55.80
2019-02-26T20:06:49.060Z,55.90
2019-02-26T20:09:20.981Z,55.80
2019-02-26T20:11:53.601Z,55.70
2019-02-26T20:14:24.277Z,55.60
2019-02-26T20:16:55.175Z,55.40
2019-02-26T20:19:26.581Z,55.70
2019-02-26T20:21:57.922Z,56.10
2019-02-26T20:24:28.257Z,56.40
2019-02-26T20:26:58.979Z,56.50
2019-02-26T20:29:29.582Z,56.60
2019-02-26T20:31:59.804Z,56.80
2019-02-26T20:34:31.206Z,57.30
2019-02-26T20:37:02.967Z,58.00
2019-02-26T20:39:34.190Z,58.20
2019-02-26T20:42:05.416Z,58.40
2019-02-26T20:44:37.234Z,58.20
2019-02-26T20:47:07.997Z,58.20
2019-02-26T20:49:39.580Z,58.00
2019-02-26T20:52:09.988Z,58.00
2019-02-26T20:54:44.435Z,58.10
2019-02-26T20:57:12.558Z,58.40
2019-02-26T20:59:43.273Z,58.50
2019-02-26T21:02:14.055Z,58.50
2019-02-26T21:04:44.576Z,58.60
2019-02-26T21:07:15.946Z,58.70
2019-02-26T21:09:46.492Z,59.30
2019-02-26T21:12:17.823Z,59.90
2019-02-26T21:14:49.161Z,61.50
2019-02-26T21:17:19.652Z,62.10
2019-02-26T21:19:49.710Z,63.50
2019-02-26T21:22:21.996Z,63.10
2019-02-26T21:24:53.354Z,63.70
2019-02-26T21:27:25.952Z,64.10
2019-02-26T21:29:57.953Z,64.30
2019-02-26T21:32:28.012Z,64.50
2019-02-26T21:34:58.350Z,64.60
2019-02-26T21:37:32.602Z,64.50
2019-02-26T21:40:01.088Z,64.70
2019-02-26T21:42:33.024Z,64.80
2019-02-26T21:45:03.562Z,65.00
2019-02-26T21:47:34.649Z,65.40
2019-02-26T21:50:05.239Z,65.80
2019-02-26T21:52:35.400Z,65.90
2019-02-26T21:55:07.012Z,65.90
2019-02-26T21:57:37.834Z,66.00
2019-02-26T22:00:10.925Z,66.00
2019-02-26T22:02:41.643Z,66.20
2019-02-26T22:05:12.810Z,66.40
2019-02-26T22:07:43.042Z,66.40
2019-02-26T22:10:14.676Z,66.50
2019-02-26T22:12:45.317Z,66.50
2019-02-26T22:15:16.100Z,66.90
2019-02-26T22:17:47.051Z,67.40
2019-02-26T22:20:26.737Z,67.40
2019-02-26T22:22:50.656Z,67.50
2019-02-26T22:25:21.515Z,67.90
2019-02-26T22:27:52.462Z,68.20
2019-02-26T22:30:23.331Z,68.50
2019-02-26T22:32:53.099Z,69.40
2019-02-26T22:35:25.768Z,70.20
2019-02-26T22:37:56.047Z,70.60
2019-02-26T22:40:28.902Z,70.80
2019-02-26T22:42:57.919Z,71.10
2019-02-26T22:45:28.512Z,71.20
2019-02-26T22:48:00.619Z,72.10
2019-02-26T22:50:31.977Z,73.50
2019-02-26T22:53:03.949Z,73.80
2019-02-26T22:55:36.519Z,74.10
2019-02-26T22:58:07.662Z,74.40
2019-02-26T23:01:11.581Z,76.20
2019-02-26T23:03:46.582Z,76.30
2019-02-26T23:06:19.611Z,76.60
2019-02-26T23:08:49.915Z,77.10
2019-02-26T23:11:20.890Z,78.10
2019-02-26T23:13:52.854Z,78.20
2019-02-26T23:16:24.103Z,78.80
2019-02-26T23:18:55.611Z,79.40
2019-02-26T23:21:27.945Z,80.40
2019-02-26T23:24:00.509Z,81.80
2019-02-26T23:26:31.073Z,82.20
2019-02-26T23:29:02.405Z,83.20
2019-02-26T23:31:34.575Z,83.50
2019-02-26T23:34:05.342Z,84.10
2019-02-26T23:36:35.850Z,85.30
2019-02-26T23:39:10.613Z,85.70
2019-02-26T23:41:43.255Z,86.30
2019-02-26T23:44:17.832Z,86.90
2019-02-26T23:46:48.369Z,87.90
2019-02-26T23:49:19.371Z,89.50
2019-02-26T23:51:50.970Z,90.20
2019-02-26T23:54:23.509Z,90.90
2019-02-26T23:56:54.247Z,91.80
2019-02-26T23:59:25.003Z,93.10
